Time;durP1;ratioP1;P1;durP2;ratioP2;P2;SDS_P1;SDS_P2;PMS_P1;PMS_P2;Temp;Humidity;BMP_temperature;BMP_pressure;BME280_temperature;BME280_humidity;BME280_pressure;Samples;Min_cycle;Max_cycle;Signal;HPM_P1;HPM_P2
2023/04/04 00:01:18;;;;;;;4.85;1.88;;;2.80;99.90;;;;;;5001985;28;20042;-85
2023/04/04 00:03:44;;;;;;;3.20;1.50;;;2.80;99.90;;;;;;5002968;28;20041;-85
2023/04/04 00:06:09;;;;;;;3.10;1.20;;;2.80;99.90;;;;;;4967795;28;20122;-85
2023/04/04 00:08:44;;;;;;;4.00;1.40;;;2.80;99.90;;;;;;4987281;28;20549;-85
2023/04/04 00:11:15;;;;;;;5.85;1.70;;;2.80;99.90;;;;;;5003453;28;20053;-85
2023/04/04 00:13:45;;;;;;;3.83;1.50;;;2.80;99.90;;;;;;5001338;28;20128;-85
2023/04/04 00:16:19;;;;;;;3.00;1.65;;;2.80;99.90;;;;;;4989305;28;20526;-85
2023/04/04 00:18:48;;;;;;;5.50;1.63;;;2.80;99.90;;;;;;4975394;28;20058;-85
2023/04/04 00:21:13;;;;;;;2.47;1.40;;;2.80;99.90;;;;;;4990768;28;20050;-85
2023/04/04 00:23:39;;;;;;;3.90;1.40;;;2.70;99.90;;;;;;4982503;28;20053;-85
2023/04/04 00:26:10;;;;;;;3.33;1.48;;;2.70;99.90;;;;;;4987752;28;20073;-85
2023/04/04 00:28:36;;;;;;;6.43;1.38;;;2.70;99.90;;;;;;4986569;28;20034;-85
2023/04/04 00:31:02;;;;;;;3.63;1.53;;;2.70;99.90;;;;;;4963966;28;20049;-85
2023/04/04 00:33:44;;;;;;;6.93;1.40;;;2.70;99.90;;;;;;4969298;28;20135;-84
2023/04/04 00:36:18;;;;;;;3.78;1.75;;;2.60;99.90;;;;;;5003930;28;20046;-85
2023/04/04 00:38:44;;;;;;;5.32;1.52;;;2.70;99.90;;;;;;4967882;28;20073;-84
2023/04/04 00:41:13;;;;;;;7.00;2.03;;;2.60;99.90;;;;;;4993005;28;20449;-85
2023/04/04 00:43:43;;;;;;;5.68;1.90;;;2.60;99.90;;;;;;4981321;28;20168;-85
2023/04/04 00:46:25;;;;;;;7.18;1.83;;;2.60;99.90;;;;;;4978961;28;20081;-84
2023/04/04 00:49:00;;;;;;;3.75;1.63;;;2.50;99.90;;;;;;4976628;28;20052;-85
2023/04/04 00:54:58;;;;;;;5.40;2.00;;;2.50;99.90;;;;;;4986609;28;20050;-84
2023/04/04 00:57:28;;;;;;;4.07;2.13;;;2.40;99.90;;;;;;4996881;28;20117;-85
2023/04/04 00:59:58;;;;;;;5.20;1.88;;;2.40;99.90;;;;;;4962149;28;20042;-84
2023/04/04 01:02:25;;;;;;;5.63;1.90;;;2.40;99.90;;;;;;4985571;28;20045;-84
2023/04/04 01:05:26;;;;;;;4.60;1.85;;;2.30;99.90;;;;;;4987220;28;20384;-85
2023/04/04 01:08:16;;;;;;;7.65;2.47;;;2.30;99.90;;;;;;5000758;28;20048;-84
2023/04/04 01:10:45;;;;;;;3.13;1.63;;;2.30;99.90;;;;;;4984984;28;20053;-85
2023/04/04 01:13:22;;;;;;;4.72;1.88;;;2.30;99.90;;;;;;5000183;28;20041;-85
2023/04/04 01:15:48;;;;;;;4.15;1.67;;;2.30;99.90;;;;;;4979104;28;20101;-88
2023/04/04 01:18:19;;;;;;;4.68;1.73;;;2.20;99.90;;;;;;5016662;28;20045;-85
2023/04/04 01:21:04;;;;;;;6.65;2.40;;;2.20;99.90;;;;;;5007309;28;20045;-84
2023/04/04 01:24:27;;;;;;;4.03;1.95;;;2.20;99.90;;;;;;4993621;28;20062;-84
2023/04/04 01:26:56;;;;;;;7.75;2.10;;;2.10;99.90;;;;;;4995251;23;20349;-68
2023/04/04 01:29:26;;;;;;;5.38;1.88;;;2.10;99.90;;;;;;4959677;28;20042;-68
2023/04/04 01:32:26;;;;;;;5.85;2.30;;;2.10;99.90;;;;;;4966030;28;20062;-67
2023/04/04 01:35:29;;;;;;;4.95;2.15;;;2.10;99.90;;;;;;4963996;28;20050;-67
2023/04/04 01:38:17;;;;;;;6.43;2.28;;;2.20;99.90;;;;;;4945485;28;20384;-67
2023/04/04 01:40:51;;;;;;;6.18;2.22;;;2.20;99.90;;;;;;4964914;28;20070;-68
2023/04/04 01:43:19;;;;;;;6.32;2.78;;;2.10;99.90;;;;;;4970954;28;20050;-68
2023/04/04 01:45:45;;;;;;;5.37;2.40;;;2.10;99.90;;;;;;4984421;28;20053;-68
2023/04/04 01:48:11;;;;;;;8.63;2.53;;;2.10;99.90;;;;;;4983637;28;20049;-68
2023/04/04 01:50:36;;;;;;;7.10;2.10;;;2.10;99.90;;;;;;4966747;28;20296;-68
2023/04/04 01:53:02;;;;;;;8.30;2.23;;;2.20;99.90;;;;;;4984159;28;20057;-67
2023/04/04 01:55:28;;;;;;;8.60;2.23;;;2.10;99.90;;;;;;4963353;28;20091;-67
2023/04/04 01:57:54;;;;;;;8.05;2.67;;;2.10;99.90;;;;;;4984340;28;20458;-68
2023/04/04 02:00:19;;;;;;;7.67;2.50;;;2.20;99.90;;;;;;4980977;28;20367;-67
2023/04/04 02:02:45;;;;;;;7.23;2.33;;;2.10;99.90;;;;;;4970653;28;20042;-67
2023/04/04 02:05:11;;;;;;;5.63;2.73;;;2.10;99.90;;;;;;4968931;28;20535;-67
2023/04/04 02:07:37;;;;;;;5.25;2.25;;;2.10;99.90;;;;;;4980375;28;20034;-67
2023/04/04 02:10:03;;;;;;;4.25;2.10;;;2.10;99.90;;;;;;4962665;28;20054;-67
2023/04/04 02:12:28;;;;;;;4.70;2.47;;;2.10;99.90;;;;;;4965820;28;20061;-68
2023/04/04 02:14:54;;;;;;;5.37;2.53;;;2.00;99.90;;;;;;4981491;28;20061;-67
2023/04/04 02:17:20;;;;;;;6.13;2.00;;;2.00;99.90;;;;;;4981537;28;20054;-67
2023/04/04 02:19:45;;;;;;;3.03;1.90;;;2.00;99.90;;;;;;4963734;28;20107;-67
2023/04/04 02:22:11;;;;;;;9.07;2.67;;;2.00;99.90;;;;;;4964048;28;20507;-68
2023/04/04 02:24:36;;;;;;;4.23;1.93;;;2.00;99.90;;;;;;4984457;28;20061;-68
2023/04/04 02:27:03;;;;;;;4.87;2.53;;;2.00;99.90;;;;;;4965570;28;20053;-67
2023/04/04 02:29:29;;;;;;;7.43;2.45;;;2.00;99.90;;;;;;4965469;28;20046;-68
2023/04/04 02:31:54;;;;;;;7.85;3.60;;;1.90;99.90;;;;;;4964167;28;20072;-67
2023/04/04 02:34:20;;;;;;;9.73;2.30;;;1.90;99.90;;;;;;4980014;28;20035;-67
2023/04/04 02:36:46;;;;;;;6.65;2.22;;;1.90;99.90;;;;;;4962701;28;20050;-67
2023/04/04 02:39:12;;;;;;;8.03;2.43;;;1.90;99.90;;;;;;4961537;28;20049;-67
2023/04/04 02:41:37;;;;;;;5.63;2.53;;;1.80;99.90;;;;;;4964409;28;20046;-68
2023/04/04 02:44:03;;;;;;;7.20;2.67;;;1.80;99.90;;;;;;4966441;28;20050;-67
2023/04/04 02:46:28;;;;;;;6.13;2.37;;;1.80;99.90;;;;;;4944607;28;20070;-68
2023/04/04 02:48:54;;;;;;;7.17;2.87;;;1.80;99.90;;;;;;4961910;28;20463;-68
2023/04/04 02:51:19;;;;;;;6.50;2.53;;;1.80;99.90;;;;;;4965674;28;20046;-67
2023/04/04 02:53:48;;;;;;;6.00;2.60;;;1.70;99.90;;;;;;4966198;28;20046;-67
2023/04/04 02:56:13;;;;;;;5.47;2.30;;;1.70;99.90;;;;;;4960641;28;20062;-67
2023/04/04 02:58:39;;;;;;;7.50;2.60;;;1.70;99.90;;;;;;4965191;28;20054;-67
2023/04/04 03:01:05;;;;;;;5.68;2.78;;;1.70;99.90;;;;;;4964650;28;20057;-67
2023/04/04 03:03:31;;;;;;;6.32;2.55;;;1.60;99.90;;;;;;4966701;28;20042;-68
2023/04/04 03:05:58;;;;;;;6.67;2.87;;;1.60;99.90;;;;;;4965035;28;20046;-67
2023/04/04 03:08:24;;;;;;;5.78;2.85;;;1.60;99.90;;;;;;4960348;28;20049;-68
2023/04/04 03:10:49;;;;;;;9.80;3.17;;;1.50;99.90;;;;;;4965286;28;20058;-67
2023/04/04 03:13:15;;;;;;;6.50;2.40;;;1.60;99.90;;;;;;4968352;28;20053;-67
2023/04/04 03:15:42;;;;;;;4.07;2.47;;;1.50;99.90;;;;;;4968280;28;20050;-68
2023/04/04 03:18:07;;;;;;;;;;;1.50;99.90;;;;;;4984745;28;20041;-68
2023/04/04 03:20:33;;;;;;;4.80;2.22;;;1.50;99.90;;;;;;4969720;28;19921;-68
2023/04/04 03:22:59;;;;;;;5.33;2.17;;;1.50;99.90;;;;;;4987824;28;20042;-67
2023/04/04 03:25:24;;;;;;;6.53;2.73;;;1.50;99.90;;;;;;4968250;28;20070;-67
2023/04/04 03:27:50;;;;;;;4.90;2.67;;;1.50;99.90;;;;;;4967380;28;20069;-67
2023/04/04 03:30:16;;;;;;;5.57;2.40;;;1.40;99.90;;;;;;4949669;28;20137;-68
2023/04/04 03:32:41;;;;;;;4.83;2.73;;;1.40;99.90;;;;;;4969856;28;20042;-67
2023/04/04 03:35:07;;;;;;;4.20;2.40;;;1.40;99.90;;;;;;4962617;28;20449;-67
2023/04/04 03:37:33;;;;;;;5.40;2.43;;;1.30;99.90;;;;;;4978346;28;20140;-67
2023/04/04 03:39:59;;;;;;;5.63;2.80;;;1.40;99.90;;;;;;4963144;28;20042;-68
2023/04/04 03:42:27;;;;;;;7.80;2.87;;;1.30;99.90;;;;;;4971914;28;21092;-67
2023/04/04 03:44:54;;;;;;;6.93;2.55;;;1.30;99.90;;;;;;4987388;28;20078;-68
2023/04/04 03:47:22;;;;;;;5.17;2.37;;;1.30;99.90;;;;;;4965910;28;20448;-68
2023/04/04 03:49:50;;;;;;;4.72;2.40;;;1.20;99.90;;;;;;4985725;28;20046;-68
2023/04/04 03:52:16;;;;;;;8.43;2.90;;;1.20;99.90;;;;;;4954507;28;20105;-68
2023/04/04 03:54:41;;;;;;;5.03;2.07;;;1.20;99.90;;;;;;4966566;28;20049;-67
2023/04/04 03:57:07;;;;;;;3.77;2.13;;;1.20;99.90;;;;;;4983920;28;20046;-67
2023/04/04 03:59:33;;;;;;;5.70;2.53;;;1.20;99.90;;;;;;4966793;28;20034;-67
2023/04/04 04:01:58;;;;;;;4.57;2.23;;;1.20;99.90;;;;;;4969264;28;20078;-67
2023/04/04 04:04:24;;;;;;;6.13;2.60;;;1.20;99.90;;;;;;4970717;28;20094;-67
2023/04/04 04:06:50;;;;;;;6.67;2.50;;;1.20;99.90;;;;;;4962794;28;20042;-68
2023/04/04 04:09:15;;;;;;;4.97;2.17;;;1.10;99.90;;;;;;4979961;28;20039;-67
2023/04/04 04:11:41;;;;;;;4.20;2.07;;;1.10;99.90;;;;;;4984437;28;20472;-67
2023/04/04 04:14:07;;;;;;;9.83;2.53;;;1.10;99.90;;;;;;4984868;28;20539;-68
2023/04/04 04:16:33;;;;;;;6.30;2.67;;;1.10;99.90;;;;;;4949205;28;20077;-67
2023/04/04 04:18:59;;;;;;;8.77;3.33;;;1.10;99.90;;;;;;4965661;28;20494;-67
2023/04/04 04:21:26;;;;;;;5.93;2.87;;;1.10;99.90;;;;;;4965627;28;20066;-67
2023/04/04 04:23:52;;;;;;;7.10;2.75;;;1.10;99.90;;;;;;4967302;28;20600;-68
2023/04/04 04:26:20;;;;;;;6.57;2.67;;;1.10;99.90;;;;;;4984131;28;20038;-68
2023/04/04 04:28:47;;;;;;;5.50;2.08;;;1.10;99.90;;;;;;4982301;28;20120;-67
2023/04/04 04:31:13;;;;;;;9.02;3.20;;;1.10;99.90;;;;;;4964558;28;22014;-67
2023/04/04 04:33:38;;;;;;;3.97;2.23;;;1.10;99.90;;;;;;4964494;28;20373;-68
2023/04/04 04:36:05;;;;;;;6.00;2.97;;;1.10;99.90;;;;;;4963542;28;20058;-67
2023/04/04 04:38:32;;;;;;;10.23;2.95;;;1.10;99.90;;;;;;4948987;28;20055;-68
2023/04/04 04:40:58;;;;;;;4.75;2.90;;;1.10;99.90;;;;;;4968256;28;20401;-68
2023/04/04 04:43:23;;;;;;;6.22;2.55;;;1.10;99.90;;;;;;4984049;28;20046;-68
2023/04/04 04:45:49;;;;;;;7.93;2.80;;;1.10;99.90;;;;;;4953719;28;20456;-67
2023/04/04 04:48:16;;;;;;;4.40;2.37;;;1.10;99.90;;;;;;4982222;28;20195;-67
2023/04/04 04:50:46;;;;;;;7.38;2.60;;;1.20;99.90;;;;;;4966763;28;20380;-67
2023/04/04 04:53:14;;;;;;;6.03;2.63;;;1.20;99.90;;;;;;4964442;28;20081;-68
2023/04/04 04:55:44;;;;;;;5.68;2.80;;;1.10;99.90;;;;;;4965018;28;20046;-67
2023/04/04 04:58:12;;;;;;;6.78;2.50;;;1.20;99.90;;;;;;4956540;28;20054;-67
2023/04/04 05:00:37;;;;;;;6.10;2.42;;;1.20;99.90;;;;;;4976875;28;20061;-68
2023/04/04 05:03:06;;;;;;;11.03;3.97;;;1.20;99.90;;;;;;4964754;28;20050;-68
2023/04/04 05:05:35;;;;;;;6.97;3.85;;;1.20;99.90;;;;;;4972012;28;20158;-68
2023/04/04 05:08:02;;;;;;;6.57;2.80;;;1.10;99.90;;;;;;4960832;28;20060;-67
2023/04/04 05:10:29;;;;;;;7.53;2.50;;;1.20;99.90;;;;;;4963433;28;20456;-68
2023/04/04 05:12:54;;;;;;;8.75;2.50;;;1.10;99.90;;;;;;4965519;28;20413;-68
2023/04/04 05:15:21;;;;;;;6.03;2.43;;;1.20;99.90;;;;;;4965113;28;20061;-68
2023/04/04 05:17:49;;;;;;;4.57;2.78;;;1.10;99.90;;;;;;4984203;28;20560;-68
2023/04/04 05:20:15;;;;;;;4.97;2.13;;;1.10;99.90;;;;;;4979739;28;20145;-67
2023/04/04 05:22:44;;;;;;;13.77;3.87;;;1.10;99.90;;;;;;4964009;28;20236;-68
2023/04/04 05:25:13;;;;;;;9.73;2.65;;;1.10;99.90;;;;;;4982963;28;20500;-67
2023/04/04 05:27:39;;;;;;;5.85;2.63;;;1.10;99.90;;;;;;4961680;28;20116;-68
2023/04/04 05:30:06;;;;;;;6.03;2.45;;;1.10;99.90;;;;;;4965052;28;20046;-68
2023/04/04 05:32:32;;;;;;;5.82;2.63;;;1.20;99.90;;;;;;4980841;28;20077;-68
2023/04/04 05:34:58;;;;;;;4.85;2.60;;;1.20;99.90;;;;;;4963449;28;20104;-68
2023/04/04 05:37:24;;;;;;;4.53;2.87;;;1.20;99.90;;;;;;4980027;28;20188;-68
2023/04/04 05:39:49;;;;;;;4.57;2.20;;;1.20;99.90;;;;;;4961189;28;20073;-68
2023/04/04 05:42:15;;;;;;;5.43;2.57;;;1.20;99.90;;;;;;4965382;28;20446;-68
2023/04/04 05:44:41;;;;;;;4.73;2.33;;;1.20;99.90;;;;;;4963799;28;20504;-68
2023/04/04 05:47:07;;;;;;;8.03;2.60;;;1.20;99.90;;;;;;4965600;28;20038;-68
2023/04/04 05:49:32;;;;;;;5.70;2.70;;;1.20;99.90;;;;;;4983617;28;20042;-68
2023/04/04 05:57:03;;;;;;;7.82;3.20;;;1.30;99.90;;;;;;4964826;28;20047;-71
2023/04/04 05:59:29;;;;;;;6.03;2.50;;;1.30;99.90;;;;;;4949203;28;20050;-70
2023/04/04 06:01:54;;;;;;;6.20;2.93;;;1.40;99.90;;;;;;4971075;28;20046;-71
2023/04/04 06:04:20;;;;;;;4.77;2.37;;;1.40;99.90;;;;;;4956189;28;20234;-68
2023/04/04 06:06:46;;;;;;;5.93;2.80;;;1.50;99.90;;;;;;4959494;28;20904;-73
2023/04/04 06:09:11;;;;;;;7.00;3.07;;;1.60;99.90;;;;;;4951897;28;20062;-70
2023/04/04 06:11:37;;;;;;;7.23;2.57;;;1.60;99.90;;;;;;4948611;28;20448;-71
2023/04/04 06:14:03;;;;;;;4.90;2.43;;;1.70;99.90;;;;;;4949715;28;20233;-68
2023/04/04 06:16:28;;;;;;;6.90;2.10;;;1.80;99.90;;;;;;4947844;28;20388;-67
2023/04/04 06:18:54;;;;;;;5.43;2.70;;;1.80;99.90;;;;;;4948683;28;20096;-68
2023/04/04 06:21:20;;;;;;;6.03;2.40;;;1.90;99.90;;;;;;4947112;28;20220;-68
2023/04/04 06:23:46;;;;;;;7.97;3.13;;;2.00;99.90;;;;;;4948935;28;20062;-68
2023/04/04 06:26:11;;;;;;;6.63;3.05;;;2.00;99.90;;;;;;4945056;28;20070;-67
2023/04/04 06:28:38;;;;;;;6.63;2.40;;;2.10;99.90;;;;;;4961492;28;20043;-68
2023/04/04 06:31:07;;;;;;;6.88;2.38;;;2.20;99.90;;;;;;4944399;28;20043;-68
2023/04/04 06:33:33;;;;;;;4.35;2.00;;;2.20;99.90;;;;;;4962778;28;20562;-68
2023/04/04 06:36:00;;;;;;;5.20;2.13;;;2.20;99.90;;;;;;4944322;28;20046;-68
2023/04/04 06:38:28;;;;;;;4.22;1.95;;;2.30;99.90;;;;;;4944349;28;20117;-67
2023/04/04 06:40:53;;;;;;;6.53;2.33;;;2.30;99.90;;;;;;4950695;28;20058;-67
2023/04/04 06:43:20;;;;;;;4.77;2.37;;;2.30;99.90;;;;;;4960887;28;20478;-67
2023/04/04 06:45:48;;;;;;;5.38;1.83;;;2.30;99.90;;;;;;4961397;28;20055;-68
2023/04/04 06:48:15;;;;;;;8.63;2.45;;;2.40;99.90;;;;;;4947187;28;20038;-68
2023/04/04 06:50:41;;;;;;;4.78;2.10;;;2.40;99.90;;;;;;4941926;28;20118;-68
2023/04/04 06:53:07;;;;;;;5.90;2.50;;;2.40;99.90;;;;;;4953211;28;20140;-68
2023/04/04 06:55:33;;;;;;;4.80;2.30;;;2.50;99.90;;;;;;4947464;28;20046;-67
2023/04/04 06:57:59;;;;;;;4.68;1.95;;;2.50;99.90;;;;;;4945308;28;20055;-68
2023/04/04 07:00:25;;;;;;;8.20;2.03;;;2.50;99.90;;;;;;4962587;28;20414;-67
2023/04/04 07:02:57;;;;;;;3.53;1.90;;;2.60;99.90;;;;;;4955565;28;20043;-68
2023/04/04 07:05:23;;;;;;;4.55;2.10;;;2.60;99.90;;;;;;4945701;28;20409;-67
2023/04/04 07:07:53;;;;;;;6.10;2.80;;;2.60;99.90;;;;;;4957752;28;20141;-68
2023/04/04 07:10:19;;;;;;;3.65;1.55;;;2.60;99.90;;;;;;4953387;28;20038;-68
2023/04/04 07:12:45;;;;;;;4.80;2.25;;;2.60;99.90;;;;;;4933981;28;20134;-68
2023/04/04 07:15:11;;;;;;;3.47;1.57;;;2.60;99.90;;;;;;4949486;28;20058;-68
2023/04/04 07:17:40;;;;;;;3.72;1.77;;;2.60;99.90;;;;;;4949868;28;20457;-68
2023/04/04 07:20:07;;;;;;;4.13;2.33;;;2.70;99.90;;;;;;4953664;28;20571;-67
2023/04/04 07:22:39;;;;;;;5.25;2.35;;;2.80;99.90;;;;;;4965406;28;20034;-68
2023/04/04 07:25:06;;;;;;;4.90;1.80;;;2.80;99.90;;;;;;4954209;28;20480;-67
2023/04/04 07:27:32;;;;;;;;;;;2.90;99.90;;;;;;4966722;28;20035;-68
2023/04/04 07:29:57;;;;;;;8.70;3.30;;;3.00;99.90;;;;;;4964158;28;20421;-67
2023/04/04 07:32:23;;;;;;;6.50;2.00;;;3.10;99.90;;;;;;4971071;28;20038;-67
2023/04/04 07:34:49;;;;;;;5.60;2.30;;;3.10;99.90;;;;;;4966360;28;20588;-67
2023/04/04 07:37:15;;;;;;;4.93;2.23;;;3.20;99.90;;;;;;4960040;28;20137;-68
2023/04/04 07:39:41;;;;;;;4.77;2.23;;;3.20;99.90;;;;;;4947274;28;20395;-70
2023/04/04 07:42:06;;;;;;;4.00;1.90;;;3.30;99.90;;;;;;4952220;28;20127;-71
2023/04/04 07:44:32;;;;;;;4.77;2.13;;;3.40;99.90;;;;;;4952094;28;20069;-68
2023/04/04 07:46:57;;;;;;;4.90;1.83;;;3.50;99.90;;;;;;4967140;28;20626;-70
2023/04/04 07:49:23;;;;;;;5.33;2.17;;;3.60;99.90;;;;;;4961780;28;20133;-69
2023/04/04 07:51:49;;;;;;;7.03;2.30;;;3.70;99.90;;;;;;4945229;28;20058;-69
2023/04/04 07:54:15;;;;;;;6.03;2.78;;;3.90;99.90;;;;;;4968192;28;20070;-75
2023/04/04 07:56:40;;;;;;;3.50;2.00;;;4.00;99.90;;;;;;4952518;28;20547;-68
2023/04/04 07:59:06;;;;;;;3.87;1.97;;;4.20;99.90;;;;;;4948873;28;20053;-68
2023/04/04 08:01:31;;;;;;;4.03;1.77;;;4.30;99.90;;;;;;4938344;28;20038;-68
2023/04/04 08:03:57;;;;;;;6.03;1.77;;;4.40;99.90;;;;;;4964690;28;20039;-68
2023/04/04 08:06:23;;;;;;;6.13;1.93;;;4.50;99.90;;;;;;4942728;28;20119;-68
2023/04/04 08:08:49;;;;;;;4.23;1.43;;;4.60;99.90;;;;;;4944358;28;20401;-68
2023/04/04 08:11:14;;;;;;;3.83;1.83;;;4.70;99.90;;;;;;4955213;28;20051;-68
2023/04/04 08:13:40;;;;;;;2.70;1.60;;;4.80;99.90;;;;;;4948241;28;20058;-67
2023/04/04 08:16:06;;;;;;;4.17;2.00;;;4.90;99.90;;;;;;4964218;28;20084;-68
2023/04/04 08:18:32;;;;;;;9.27;1.85;;;5.00;99.90;;;;;;4948793;28;20081;-68
2023/04/04 08:20:58;;;;;;;5.00;2.17;;;5.00;99.90;;;;;;4953637;28;20290;-68
2023/04/04 08:23:23;;;;;;;3.17;1.80;;;5.10;99.90;;;;;;4963988;28;20129;-68
2023/04/04 08:25:49;;;;;;;8.37;1.50;;;5.10;99.90;;;;;;4962644;28;20046;-68
2023/04/04 08:28:14;;;;;;;2.83;1.40;;;5.20;99.90;;;;;;4930583;28;20038;-68
2023/04/04 08:30:40;;;;;;;3.27;1.73;;;5.30;99.90;;;;;;4951095;28;20126;-67
2023/04/04 08:33:06;;;;;;;4.47;1.80;;;5.40;99.90;;;;;;4952613;28;20090;-68
2023/04/04 08:35:32;;;;;;;3.77;1.47;;;5.50;99.90;;;;;;4950002;28;20415;-68
2023/04/04 08:37:57;;;;;;;5.00;1.30;;;5.60;99.90;;;;;;4930919;28;20453;-68
2023/04/04 08:40:23;;;;;;;4.93;1.80;;;5.70;99.90;;;;;;4946414;28;20041;-68
2023/04/04 08:42:50;;;;;;;5.00;2.03;;;5.70;99.90;;;;;;4964889;28;20031;-68
2023/04/04 08:45:18;;;;;;;5.57;1.25;;;5.90;99.90;;;;;;4941045;28;20053;-68
2023/04/04 08:47:47;;;;;;;3.53;1.67;;;5.90;99.90;;;;;;4960632;28;20405;-68
2023/04/04 08:50:13;;;;;;;6.32;2.05;;;6.10;99.90;;;;;;4947764;28;20046;-68
2023/04/04 08:52:40;;;;;;;2.92;1.50;;;6.10;99.90;;;;;;4962626;28;20046;-68
2023/04/04 08:55:07;;;;;;;6.10;1.58;;;6.20;99.90;;;;;;4965070;28;20039;-68
2023/04/04 08:57:32;;;;;;;10.30;1.73;;;6.30;99.90;;;;;;4943479;28;20046;-68
2023/04/04 08:59:58;;;;;;;4.63;2.10;;;6.30;99.90;;;;;;4947087;28;20217;-68
2023/04/04 09:02:37;;;;;;;9.57;1.90;;;6.30;99.90;;;;;;4964144;28;20535;-68
2023/04/04 09:05:03;;;;;;;3.55;1.10;;;6.40;99.90;;;;;;4941599;28;20047;-68
2023/04/04 09:07:30;;;;;;;2.88;1.33;;;6.50;99.90;;;;;;4941125;28;20047;-68
2023/04/04 09:09:56;;;;;;;5.63;1.30;;;6.60;99.90;;;;;;4962400;28;20039;-68
2023/04/04 09:12:23;;;;;;;4.45;1.35;;;6.70;99.90;;;;;;4964155;28;20052;-68
2023/04/04 09:14:51;;;;;;;7.32;1.52;;;6.80;99.90;;;;;;4962804;28;20054;-68
2023/04/04 09:17:17;;;;;;;3.97;1.50;;;6.90;99.90;;;;;;4950956;28;20086;-68
2023/04/04 09:19:43;;;;;;;3.33;1.10;;;7.00;99.90;;;;;;4941270;28;20376;-68
2023/04/04 09:22:08;;;;;;;5.77;1.50;;;7.10;99.90;;;;;;4944074;28;20111;-68
2023/04/04 09:24:39;;;;;;;3.93;1.10;;;7.30;99.90;;;;;;4962976;28;20046;-68
2023/04/04 09:27:07;;;;;;;6.03;1.80;;;7.40;99.90;;;;;;4948919;28;20153;-68
2023/04/04 09:29:33;;;;;;;3.35;1.30;;;7.50;99.90;;;;;;4949358;28;20031;-68
2023/04/04 09:31:59;;;;;;;3.45;1.27;;;7.60;99.90;;;;;;4962883;28;20161;-67
2023/04/04 09:34:27;;;;;;;2.22;1.10;;;7.70;99.90;;;;;;4951892;28;20097;-68
2023/04/04 09:36:53;;;;;;;4.55;1.38;;;7.80;99.90;;;;;;4962573;28;20090;-67
2023/04/04 09:39:19;;;;;;;3.28;1.40;;;7.90;99.90;;;;;;4965759;28;20523;-68
2023/04/04 09:41:45;;;;;;;4.72;1.13;;;8.10;99.90;;;;;;4963732;28;20356;-68
2023/04/04 09:44:12;;;;;;;2.65;1.20;;;8.20;99.90;;;;;;4961627;28;20123;-67
2023/04/04 09:46:38;;;;;;;2.58;1.10;;;8.20;99.90;;;;;;4951797;28;20042;-68
2023/04/04 09:49:04;;;;;;;;;;;8.30;99.90;;;;;;4943703;28;20146;-68
2023/04/04 09:51:37;;;;;;;6.30;1.13;;;8.30;99.90;;;;;;4940921;28;20008;-68
2023/04/04 09:54:05;;;;;;;2.28;1.15;;;8.50;99.90;;;;;;4964985;28;20433;-72
2023/04/04 09:56:33;;;;;;;2.03;1.00;;;8.60;99.90;;;;;;4929966;28;20509;-68
2023/04/04 09:59:00;;;;;;;9.43;1.45;;;8.60;99.90;;;;;;4958163;28;20054;-68
2023/04/04 10:01:27;;;;;;;4.28;1.50;;;8.70;99.90;;;;;;4949102;28;20116;-68
2023/04/04 10:03:54;;;;;;;5.18;1.75;;;8.80;99.90;;;;;;4947096;28;20081;-68
2023/04/04 10:06:20;;;;;;;;;;;9.00;99.90;;;;;;4964905;28;20069;-69
2023/04/04 10:08:47;;;;;;;3.20;1.10;;;9.00;97.60;;;;;;4963083;28;19972;-68
2023/04/04 10:11:12;;;;;;;4.10;1.50;;;9.10;99.70;;;;;;4963635;28;20120;-68
2023/04/04 10:13:40;;;;;;;3.40;1.63;;;9.20;98.60;;;;;;4946455;28;20051;-68
2023/04/04 10:16:06;;;;;;;6.60;1.48;;;9.40;98.80;;;;;;4945618;28;20050;-68
2023/04/04 10:18:34;;;;;;;3.13;1.48;;;9.50;97.60;;;;;;4943820;28;20416;-68
2023/04/04 10:21:09;;;;;;;3.47;1.85;;;9.60;97.10;;;;;;4955009;28;20065;-68
2023/04/04 10:23:35;;;;;;;5.40;1.80;;;9.70;96.20;;;;;;4950235;28;20055;-68
2023/04/04 10:26:01;;;;;;;;;;;9.80;94.90;;;;;;4948517;28;20053;-68
2023/04/04 10:28:27;;;;;;;4.45;1.45;;;9.90;93.70;;;;;;4964954;28;20150;-68
2023/04/04 10:31:23;;;;;;;5.18;2.03;;;9.90;93.90;;;;;;4950434;28;20125;-69
2023/04/04 10:34:09;;;;;;;4.70;1.83;;;10.10;94.60;;;;;;4951116;28;20169;-68
2023/04/04 10:36:53;;;;;;;2.92;1.30;;;10.30;94.20;;;;;;4961112;28;20046;-68
2023/04/04 10:39:37;;;;;;;8.48;1.48;;;10.50;93.70;;;;;;4951005;28;20109;-68
2023/04/04 10:42:05;;;;;;;3.50;1.45;;;10.60;92.70;;;;;;4955942;28;20624;-68
2023/04/04 10:44:32;;;;;;;3.55;1.42;;;10.60;92.30;;;;;;4949635;28;20452;-68
2023/04/04 10:47:13;;;;;;;4.18;1.77;;;10.60;91.50;;;;;;4978280;28;20505;-68
2023/04/04 10:49:41;;;;;;;2.70;1.42;;;10.60;91.20;;;;;;4969245;28;20046;-68
2023/04/04 10:52:07;;;;;;;3.78;1.65;;;10.60;91.40;;;;;;4969084;28;20058;-68
2023/04/04 10:54:33;;;;;;;;;;;10.70;90.80;;;;;;4949893;28;20532;-68
2023/04/04 10:56:59;;;;;;;6.05;1.80;;;10.70;88.10;;;;;;4959100;28;19980;-69
2023/04/04 10:59:25;;;;;;;4.97;1.75;;;10.80;90.30;;;;;;4966770;28;20095;-68
2023/04/04 11:02:09;;;;;;;3.05;1.83;;;10.90;90.10;;;;;;4946750;28;20078;-68
2023/04/04 11:04:37;;;;;;;3.00;1.30;;;10.90;87.50;;;;;;4947499;28;20133;-68
2023/04/04 11:07:11;;;;;;;4.25;1.77;;;11.00;87.40;;;;;;4951636;28;20139;-68
2023/04/04 11:09:53;;;;;;;5.40;1.80;;;11.00;86.50;;;;;;4949241;28;20069;-68
2023/04/04 11:12:26;;;;;;;5.25;1.85;;;11.10;85.10;;;;;;4972347;28;20459;-68
2023/04/04 11:14:57;;;;;;;5.85;1.73;;;11.20;85.70;;;;;;4952521;28;20944;-69
2023/04/04 11:17:43;;;;;;;2.83;1.50;;;11.30;84.60;;;;;;4967509;28;20235;-68
2023/04/04 11:20:13;;;;;;;3.30;1.55;;;11.50;82.70;;;;;;4964465;28;20126;-68
2023/04/04 11:22:41;;;;;;;3.80;1.60;;;11.40;80.50;;;;;;4954098;28;20034;-68
2023/04/04 11:25:29;;;;;;;3.40;1.70;;;11.60;81.80;;;;;;4949519;28;20077;-68
2023/04/04 11:27:59;;;;;;;3.13;1.35;;;11.60;73.60;;;;;;4954967;28;20046;-68
2023/04/04 11:30:29;;;;;;;5.28;2.28;;;11.50;79.00;;;;;;4952979;28;20038;-68
2023/04/04 11:32:58;;;;;;;3.25;1.92;;;11.50;78.90;;;;;;4951099;28;20046;-68
2023/04/04 11:35:25;;;;;;;4.05;1.17;;;11.50;78.70;;;;;;4947374;28;20082;-68
2023/04/04 11:37:53;;;;;;;4.85;1.92;;;11.50;77.90;;;;;;4968167;28;20113;-68
2023/04/04 11:40:32;;;;;;;4.00;1.92;;;11.40;76.90;;;;;;4951152;28;20560;-68
2023/04/04 11:43:02;;;;;;;4.13;1.83;;;11.50;77.40;;;;;;4943888;28;20050;-69
2023/04/04 11:45:29;;;;;;;3.85;1.70;;;11.60;77.80;;;;;;4966615;28;20121;-68
2023/04/04 11:47:57;;;;;;;4.20;1.77;;;11.70;77.60;;;;;;4933427;28;20069;-68
2023/04/04 11:50:22;;;;;;;2.55;1.35;;;11.70;77.90;;;;;;4952103;28;20054;-68
2023/04/04 11:52:49;;;;;;;6.47;1.55;;;11.80;77.00;;;;;;4984485;23;20038;-69
2023/04/04 11:55:20;;;;;;;4.07;1.65;;;11.80;75.70;;;;;;4979580;28;20050;-68
2023/04/04 11:57:47;;;;;;;5.85;2.33;;;11.80;74.70;;;;;;4977810;28;20042;-68
2023/04/04 12:00:28;;;;;;;;;;;11.90;74.70;;;;;;4981577;28;20081;-68
2023/04/04 12:02:56;;;;;;;4.32;1.48;;;11.90;72.50;;;;;;4977639;28;19922;-69
2023/04/04 12:05:22;;;;;;;2.55;1.30;;;11.80;73.20;;;;;;4977082;28;20053;-68
2023/04/04 12:07:50;;;;;;;3.53;1.90;;;11.70;72.10;;;;;;4977326;28;20125;-67
2023/04/04 12:10:16;;;;;;;4.75;1.67;;;11.80;73.00;;;;;;4985415;28;20038;-68
2023/04/04 12:12:44;;;;;;;9.05;1.90;;;11.90;72.50;;;;;;4982104;28;20047;-67
2023/04/04 12:15:12;;;;;;;4.32;2.45;;;12.00;74.20;;;;;;4982227;28;20047;-67
2023/04/04 12:17:39;;;;;;;4.35;1.50;;;12.10;73.40;;;;;;4973098;28;20054;-67
2023/04/04 12:20:09;;;;;;;5.60;2.45;;;12.20;74.70;;;;;;4974817;28;22107;-67
2023/04/04 12:22:35;;;;;;;3.95;2.10;;;12.40;74.50;;;;;;4982981;28;20057;-68
2023/04/04 12:25:00;;;;;;;5.78;2.03;;;12.30;71.80;;;;;;4986284;28;20046;-68
2023/04/04 12:27:28;;;;;;;4.53;1.98;;;12.30;72.30;;;;;;4968122;28;20042;-68
2023/04/04 12:29:55;;;;;;;4.68;1.80;;;12.40;73.30;;;;;;4989087;28;20493;-68
2023/04/04 12:32:22;;;;;;;4.07;2.05;;;12.50;73.70;;;;;;4990067;28;20046;-68
2023/04/04 12:34:48;;;;;;;4.97;1.90;;;12.50;72.60;;;;;;4984937;28;20057;-68
2023/04/04 12:37:15;;;;;;;5.40;2.13;;;12.50;72.30;;;;;;4984547;28;20097;-68
2023/04/04 12:39:49;;;;;;;4.57;1.83;;;12.40;71.20;;;;;;4995449;28;20051;-68
2023/04/04 12:42:22;;;;;;;3.75;1.85;;;12.40;71.80;;;;;;4981007;28;20034;-67
2023/04/04 12:44:52;;;;;;;4.72;1.88;;;12.50;71.70;;;;;;4986788;28;20074;-68
2023/04/04 12:47:21;;;;;;;7.03;1.85;;;12.60;72.40;;;;;;4985079;28;20571;-68
2023/04/04 12:49:47;;;;;;;3.65;1.92;;;12.80;72.90;;;;;;4983756;28;20042;-68
2023/04/04 12:52:17;;;;;;;;;;;13.00;72.00;;;;;;4986491;28;20038;-68
2023/04/04 12:54:43;;;;;;;4.88;1.85;;;13.20;70.70;;;;;;4984784;28;19918;-68
2023/04/04 12:57:11;;;;;;;6.20;2.13;;;13.10;70.10;;;;;;4977047;28;20051;-68
2023/04/04 12:59:37;;;;;;;3.67;1.67;;;13.20;70.30;;;;;;4976079;28;20061;-68
2023/04/04 13:02:12;;;;;;;5.65;1.67;;;13.30;70.30;;;;;;4986412;28;20392;-68
2023/04/04 13:04:39;;;;;;;3.38;1.60;;;13.40;69.70;;;;;;4987464;28;20295;-68
2023/04/04 13:07:18;;;;;;;2.72;1.90;;;13.30;70.40;;;;;;4965766;28;20511;-68
2023/04/04 13:09:51;;;;;;;4.57;1.92;;;13.30;69.90;;;;;;4990956;28;20487;-68
2023/04/04 13:12:17;;;;;;;4.15;1.75;;;13.30;67.40;;;;;;4984239;28;20045;-68